createdAt,value
2022-08-26T00:00:00.610Z,21.9
2022-08-26T00:01:00.246Z,21.9
2022-08-26T00:01:59.897Z,21.9
2022-08-26T00:03:00.119Z,21.9
2022-08-26T00:03:59.981Z,21.8
2022-08-26T00:04:59.743Z,21.8
2022-08-26T00:06:01.497Z,21.8
2022-08-26T00:07:01.178Z,21.8
2022-08-26T00:08:01.279Z,21.8
2022-08-26T00:09:00.982Z,21.8
2022-08-26T00:10:00.607Z,21.8
2022-08-26T00:11:00.283Z,21.8
2022-08-26T00:12:00.609Z,21.8
2022-08-26T00:13:00.332Z,21.8
2022-08-26T00:14:00.154Z,21.8
2022-08-26T00:14:59.899Z,21.8
2022-08-26T00:16:00.020Z,21.8
2022-08-26T00:16:59.764Z,21.8
2022-08-26T00:18:01.581Z,21.8
2022-08-26T00:19:00.720Z,21.8
2022-08-26T00:20:00.459Z,21.8
2022-08-26T00:21:00.127Z,21.8
2022-08-26T00:22:01.230Z,21.8
2022-08-26T00:23:01.674Z,21.8
2022-08-26T00:24:00.982Z,21.8
2022-08-26T00:25:00.884Z,21.8
2022-08-26T00:26:00.588Z,21.8
2022-08-26T00:27:01.303Z,21.8
2022-08-26T00:28:01.196Z,21.8
2022-08-26T00:29:01.085Z,21.7
2022-08-26T00:30:00.931Z,21.7
2022-08-26T00:31:00.818Z,21.7
2022-08-26T00:32:00.702Z,21.7
2022-08-26T00:33:00.509Z,21.7
2022-08-26T00:34:01.262Z,21.7
2022-08-26T00:35:01.049Z,21.7
2022-08-26T00:36:00.949Z,21.7
2022-08-26T00:37:00.665Z,21.7
2022-08-26T00:38:00.332Z,21.6
2022-08-26T00:39:01.086Z,21.7
2022-08-26T00:40:01.161Z,21.7
2022-08-26T00:41:00.812Z,21.7
2022-08-26T00:42:00.621Z,21.6
2022-08-26T00:43:00.378Z,21.6
2022-08-26T00:44:00.110Z,21.6
2022-08-26T00:45:00.408Z,21.6
2022-08-26T00:46:00.159Z,21.6
2022-08-26T00:47:01.327Z,21.6
2022-08-26T00:48:01.076Z,21.6
2022-08-26T00:49:01.892Z,21.6
2022-08-26T00:50:01.492Z,21.6
2022-08-26T00:51:00.782Z,21.6
2022-08-26T00:52:00.453Z,21.5
2022-08-26T00:53:00.158Z,21.6
2022-08-26T00:53:59.942Z,21.6
2022-08-26T00:54:59.654Z,21.6
2022-08-26T00:56:01.388Z,21.6
2022-08-26T00:57:01.194Z,21.6
2022-08-26T00:58:01.095Z,21.5
2022-08-26T00:59:01.291Z,21.5
2022-08-26T01:00:00.809Z,21.5
2022-08-26T01:01:00.640Z,21.5
2022-08-26T01:02:00.509Z,21.5
2022-08-26T01:03:01.431Z,21.5
2022-08-26T01:04:01.588Z,21.5
2022-08-26T01:05:01.353Z,21.5
2022-08-26T01:06:01.149Z,21.5
2022-08-26T01:07:00.797Z,21.5
2022-08-26T01:08:00.611Z,21.5
2022-08-26T01:09:00.664Z,21.5
2022-08-26T01:10:00.381Z,21.5
2022-08-26T01:11:00.478Z,21.5
2022-08-26T01:12:00.221Z,21.5
2022-08-26T01:13:00.086Z,21.5
2022-08-26T01:13:59.841Z,21.5
2022-08-26T01:15:01.635Z,21.5
2022-08-26T01:16:01.585Z,21.5
2022-08-26T01:17:00.933Z,21.5
2022-08-26T01:18:00.742Z,21.5
2022-08-26T01:19:01.140Z,21.5
2022-08-26T01:20:01.399Z,21.5
2022-08-26T01:21:01.159Z,21.5
2022-08-26T01:22:00.882Z,21.5
2022-08-26T01:23:01.480Z,21.5
2022-08-26T01:24:00.696Z,21.5
2022-08-26T01:25:00.422Z,21.5
2022-08-26T01:26:02.599Z,21.5
2022-08-26T01:27:00.989Z,21.5
2022-08-26T01:28:04.513Z,21.5
2022-08-26T01:29:00.675Z,21.5
2022-08-26T01:30:01.145Z,21.5
2022-08-26T01:31:01.141Z,21.5
2022-08-26T01:32:00.939Z,21.5
2022-08-26T01:33:08.698Z,21.5
2022-08-26T01:34:01.244Z,21.5
2022-08-26T01:35:00.624Z,21.4
2022-08-26T01:36:00.471Z,21.4
2022-08-26T01:37:00.246Z,21.4
2022-08-26T01:38:10.488Z,21.4
2022-08-26T01:39:01.073Z,21.3
2022-08-26T01:40:01.220Z,21.3
2022-08-26T01:41:01.024Z,21.3
2022-08-26T01:42:03.173Z,21.3
2022-08-26T01:43:15.352Z,21.3
2022-08-26T01:44:01.481Z,21.3
2022-08-26T01:45:01.337Z,21.3
2022-08-26T01:46:01.440Z,21.3
2022-08-26T01:47:01.130Z,21.3
2022-08-26T01:48:00.738Z,21.3
2022-08-26T01:49:01.020Z,21.3
2022-08-26T01:50:00.757Z,21.3
2022-08-26T01:51:00.433Z,21.3
2022-08-26T01:52:00.128Z,21.3
2022-08-26T01:52:59.826Z,21.3
2022-08-26T01:54:01.763Z,21.3
2022-08-26T01:55:01.593Z,21.3
2022-08-26T01:56:01.277Z,21.3
2022-08-26T01:57:00.980Z,21.3
2022-08-26T01:58:01.007Z,21.3
2022-08-26T01:59:00.651Z,21.3
2022-08-26T02:00:00.628Z,21.3
2022-08-26T02:01:00.309Z,21.3
2022-08-26T02:02:01.229Z,21.3
2022-08-26T02:03:01.064Z,21.3
2022-08-26T02:04:01.837Z,21.3
2022-08-26T02:05:00.837Z,21.2
2022-08-26T02:06:00.964Z,21.3
2022-08-26T02:07:00.651Z,21.3
2022-08-26T02:08:00.364Z,21.3
2022-08-26T02:09:00.031Z,21.3
2022-08-26T02:10:01.016Z,21.3
2022-08-26T02:11:00.668Z,21.3
2022-08-26T02:12:01.108Z,21.4
2022-08-26T02:13:01.378Z,21.4
2022-08-26T02:14:01.208Z,21.4
2022-08-26T02:15:00.870Z,21.4
2022-08-26T02:16:00.699Z,21.5
2022-08-26T02:17:00.611Z,21.5
2022-08-26T02:18:00.322Z,21.5
2022-08-26T02:19:00.017Z,21.5
2022-08-26T02:20:00.242Z,21.5
2022-08-26T02:20:59.975Z,21.5
2022-08-26T02:22:00.373Z,21.5
2022-08-26T02:23:00.688Z,21.5
2022-08-26T02:24:00.609Z,21.5
2022-08-26T02:25:00.371Z,21.5
2022-08-26T02:26:01.810Z,21.5
2022-08-26T02:27:01.469Z,21.5
2022-08-26T02:28:01.183Z,21.5
2022-08-26T02:29:01.208Z,21.5
2022-08-26T02:30:00.690Z,21.5
2022-08-26T02:31:02.675Z,21.5
2022-08-26T02:32:00.809Z,21.5
2022-08-26T02:33:00.937Z,21.5
2022-08-26T02:34:00.731Z,21.5
2022-08-26T02:35:00.432Z,21.5
2022-08-26T02:36:00.131Z,21.5
2022-08-26T02:37:00.110Z,21.4
2022-08-26T02:38:00.643Z,21.4
2022-08-26T02:39:01.351Z,21.4
2022-08-26T02:40:01.479Z,21.5
2022-08-26T02:41:01.360Z,21.5
2022-08-26T02:42:00.996Z,21.5
2022-08-26T02:43:00.775Z,21.5
2022-08-26T02:44:00.697Z,21.5
2022-08-26T02:45:00.342Z,21.5
2022-08-26T02:46:01.910Z,21.5
2022-08-26T02:47:01.507Z,21.5
2022-08-26T02:48:01.125Z,21.5
2022-08-26T02:49:01.342Z,21.5
2022-08-26T02:50:01.030Z,21.5
2022-08-26T02:51:00.739Z,21.5
2022-08-26T02:52:00.428Z,21.5
2022-08-26T02:53:01.438Z,21.5
2022-08-26T02:54:01.777Z,21.5
2022-08-26T02:55:01.182Z,21.5
2022-08-26T02:56:01.497Z,21.5
2022-08-26T02:57:01.178Z,21.5
2022-08-26T02:58:01.282Z,21.5
2022-08-26T02:59:00.927Z,21.5
2022-08-26T03:00:00.713Z,21.5
2022-08-26T03:01:01.517Z,21.5
2022-08-26T03:02:00.843Z,21.5
2022-08-26T03:03:00.604Z,21.5
2022-08-26T03:04:01.008Z,21.4
2022-08-26T03:05:02.467Z,21.4
2022-08-26T03:06:01.547Z,21.4
2022-08-26T03:07:02.059Z,21.4
2022-08-26T03:08:01.267Z,21.3
2022-08-26T03:09:04.102Z,21.3
2022-08-26T03:10:01.605Z,21.3
2022-08-26T03:11:01.514Z,21.3
2022-08-26T03:12:01.073Z,21.3
2022-08-26T03:13:01.563Z,21.3
2022-08-26T03:14:07.422Z,21.3
2022-08-26T03:15:00.984Z,21.3
2022-08-26T03:16:00.714Z,21.3
2022-08-26T03:17:00.487Z,21.2
2022-08-26T03:18:00.257Z,21.2
2022-08-26T03:19:11.374Z,21.2
2022-08-26T03:20:01.023Z,21.2
2022-08-26T03:21:01.131Z,21.2
2022-08-26T03:22:00.833Z,21.2
2022-08-26T03:23:00.539Z,21.1
2022-08-26T03:24:14.110Z,21.1
2022-08-26T03:25:01.315Z,21.1
2022-08-26T03:26:01.025Z,21.1
2022-08-26T03:27:00.774Z,21.1
2022-08-26T03:28:01.134Z,21.1
2022-08-26T03:29:00.665Z,21.1
2022-08-26T03:30:00.415Z,21.1
2022-08-26T03:31:01.231Z,21.1
2022-08-26T03:32:00.946Z,21.1
2022-08-26T03:33:01.032Z,21.1
2022-08-26T03:34:00.754Z,21.2
2022-08-26T03:35:00.643Z,21.2
2022-08-26T03:36:00.712Z,21.3
2022-08-26T03:37:00.428Z,21.3
2022-08-26T03:38:00.119Z,21.3
2022-08-26T03:39:01.148Z,21.3
2022-08-26T03:40:01.025Z,21.3
2022-08-26T03:41:00.731Z,21.3
2022-08-26T03:42:00.627Z,21.3
2022-08-26T03:43:00.266Z,21.3
2022-08-26T03:44:01.958Z,21.3
2022-08-26T03:45:00.775Z,21.3
2022-08-26T03:46:00.451Z,21.3
2022-08-26T03:47:00.461Z,21.3
2022-08-26T03:48:00.187Z,21.3
2022-08-26T03:49:01.122Z,21.3
2022-08-26T03:50:00.832Z,21.3
2022-08-26T03:51:00.730Z,21.3
2022-08-26T03:52:01.453Z,21.3
2022-08-26T03:53:00.856Z,21.3
2022-08-26T03:54:00.500Z,21.3
2022-08-26T03:55:01.074Z,21.3
2022-08-26T03:56:01.271Z,21.3
2022-08-26T03:57:00.855Z,21.3
2022-08-26T03:58:00.664Z,21.3
2022-08-26T03:59:01.144Z,21.3
2022-08-26T04:00:01.446Z,21.3
2022-08-26T04:01:00.998Z,21.3
2022-08-26T04:02:00.879Z,21.3
2022-08-26T04:03:00.584Z,21.3
2022-08-26T04:04:00.853Z,21.3
2022-08-26T04:05:00.662Z,21.3
2022-08-26T04:06:00.416Z,21.3
2022-08-26T04:07:00.048Z,21.3
2022-08-26T04:07:59.794Z,21.3
2022-08-26T04:09:01.730Z,21.4
2022-08-26T04:10:01.462Z,21.4
2022-08-26T04:11:01.364Z,21.4
2022-08-26T04:12:01.270Z,21.4
2022-08-26T04:13:01.335Z,21.5
2022-08-26T04:14:00.882Z,21.5
2022-08-26T04:15:00.670Z,21.4
2022-08-26T04:16:00.696Z,21.5
2022-08-26T04:17:01.301Z,21.5
2022-08-26T04:18:00.988Z,21.5
2022-08-26T04:19:00.636Z,21.5
2022-08-26T04:20:00.698Z,21.4
2022-08-26T04:21:00.455Z,21.5
2022-08-26T04:22:00.234Z,21.4
2022-08-26T04:23:00.780Z,21.4
2022-08-26T04:24:00.488Z,21.4
2022-08-26T04:25:01.464Z,21.4
2022-08-26T04:26:01.373Z,21.4
2022-08-26T04:27:01.051Z,21.4
2022-08-26T04:28:01.172Z,21.4
2022-08-26T04:29:00.778Z,21.5
2022-08-26T04:30:00.695Z,21.5
2022-08-26T04:31:00.690Z,21.5
2022-08-26T04:32:00.723Z,21.5
2022-08-26T04:33:01.746Z,21.5
2022-08-26T04:34:01.313Z,21.6
2022-08-26T04:35:01.128Z,21.6
2022-08-26T04:36:00.958Z,21.6
2022-08-26T04:37:00.923Z,21.6
2022-08-26T04:38:00.734Z,21.6
2022-08-26T04:39:00.426Z,21.6
2022-08-26T04:40:00.245Z,21.6
2022-08-26T04:41:00.143Z,21.6
2022-08-26T04:41:59.862Z,21.7
2022-08-26T04:43:00.801Z,21.7
2022-08-26T04:44:00.702Z,21.7
2022-08-26T04:45:00.367Z,21.7
2022-08-26T04:46:00.157Z,21.6
2022-08-26T04:47:00.751Z,21.7
2022-08-26T04:48:00.471Z,21.7
2022-08-26T04:49:00.196Z,21.7
2022-08-26T04:50:01.854Z,21.7
2022-08-26T04:51:01.121Z,21.8
2022-08-26T04:52:01.176Z,21.8
2022-08-26T04:53:00.808Z,21.8
2022-08-26T04:54:00.446Z,21.8
2022-08-26T04:55:04.095Z,21.8
2022-08-26T04:56:01.140Z,21.8
2022-08-26T04:57:01.017Z,21.9
2022-08-26T04:58:00.703Z,22
2022-08-26T04:59:00.369Z,22
2022-08-26T05:00:06.275Z,22
2022-08-26T05:01:01.289Z,22.1
2022-08-26T05:02:00.986Z,22.1
2022-08-26T05:03:01.419Z,22.1
2022-08-26T05:04:01.191Z,22.2
2022-08-26T05:05:07.210Z,22.3
2022-08-26T05:06:00.901Z,22.3
2022-08-26T05:07:02.742Z,22.3
2022-08-26T05:08:00.628Z,22.4
2022-08-26T05:09:00.459Z,22.5
2022-08-26T05:10:11.441Z,22.5
2022-08-26T05:11:01.148Z,22.6
2022-08-26T05:12:01.193Z,22.7
2022-08-26T05:13:00.870Z,22.8
2022-08-26T05:14:02.276Z,22.9
2022-08-26T05:15:10.906Z,23
2022-08-26T05:16:01.527Z,23.1
2022-08-26T05:17:00.574Z,23.1
2022-08-26T05:18:01.202Z,23.2
2022-08-26T05:19:00.598Z,23.3
2022-08-26T05:20:13.801Z,23.4
2022-08-26T05:21:01.202Z,23.5
2022-08-26T05:22:00.900Z,23.6
2022-08-26T05:23:00.605Z,23.6
2022-08-26T05:24:00.304Z,23.6
2022-08-26T05:25:00.004Z,23.8
2022-08-26T05:26:00.404Z,23.8
2022-08-26T05:27:00.496Z,23.8
2022-08-26T05:28:00.523Z,23.9
2022-08-26T05:29:00.244Z,24
2022-08-26T05:29:59.861Z,24
2022-08-26T05:31:01.016Z,24.1
2022-08-26T05:32:00.978Z,24.1
2022-08-26T05:33:01.019Z,24.2
2022-08-26T05:34:03.689Z,24.3
2022-08-26T05:35:01.411Z,24.3
2022-08-26T05:36:00.593Z,24.4
2022-08-26T05:37:00.304Z,24.4
2022-08-26T05:38:00.674Z,24.4
2022-08-26T05:39:00.414Z,24.5
2022-08-26T05:40:01.516Z,24.5
2022-08-26T05:41:01.117Z,24.5
2022-08-26T05:42:00.845Z,24.6
2022-08-26T05:43:00.855Z,24.5
2022-08-26T05:44:00.952Z,24.5
2022-08-26T05:45:00.643Z,24.4
2022-08-26T05:46:00.617Z,24.2
2022-08-26T05:47:01.260Z,24.1
2022-08-26T05:48:01.509Z,24
2022-08-26T05:49:01.439Z,23.9
2022-08-26T05:50:01.101Z,24
2022-08-26T05:51:00.782Z,24
2022-08-26T05:52:00.482Z,24.1
2022-08-26T05:53:00.195Z,24.2
2022-08-26T05:53:59.848Z,24.3
2022-08-26T05:55:00.557Z,24.5
2022-08-26T05:56:00.231Z,24.6
2022-08-26T05:56:59.954Z,24.7
2022-08-26T05:57:59.668Z,24.6
2022-08-26T05:59:00.692Z,24.6
2022-08-26T06:00:00.336Z,24.6
2022-08-26T06:01:00.978Z,24.6
2022-08-26T06:02:00.709Z,24.7
2022-08-26T06:03:00.623Z,24.8
2022-08-26T06:04:01.575Z,24.8
2022-08-26T06:05:01.299Z,25
2022-08-26T06:06:00.963Z,25.2
2022-08-26T06:07:01.405Z,25.3
2022-08-26T06:08:00.745Z,25.3
2022-08-26T06:09:00.916Z,25.1
2022-08-26T06:10:28.200Z,25
2022-08-26T06:11:01.061Z,24.8
2022-08-26T06:12:01.447Z,24.7
2022-08-26T06:13:04.545Z,24.5
2022-08-26T06:14:03.968Z,24.3
2022-08-26T06:15:01.161Z,24.1
2022-08-26T06:16:00.784Z,24.1
2022-08-26T06:17:00.561Z,24
2022-08-26T06:18:00.415Z,23.8
2022-08-26T06:19:00.442Z,23.8
2022-08-26T06:20:00.775Z,23.6
2022-08-26T06:21:00.788Z,23.6
2022-08-26T06:22:00.482Z,23.5
2022-08-26T06:23:00.285Z,23.5
2022-08-26T06:23:59.999Z,23.5
2022-08-26T06:25:00.519Z,23.5
2022-08-26T06:26:00.604Z,23.5
2022-08-26T06:27:00.448Z,23.5
2022-08-26T06:28:00.184Z,23.4
2022-08-26T06:29:01.700Z,23.3
2022-08-26T06:30:01.387Z,23.3
2022-08-26T06:31:02.296Z,23.3
2022-08-26T06:32:01.366Z,23.3
2022-08-26T06:33:01.083Z,23.3
2022-08-26T06:34:00.961Z,23.3
2022-08-26T06:35:00.785Z,23.4
2022-08-26T06:36:01.465Z,23.4
2022-08-26T06:37:01.954Z,23.5
2022-08-26T06:38:01.419Z,23.5
2022-08-26T06:39:01.182Z,23.5
2022-08-26T06:40:00.973Z,23.5
2022-08-26T06:41:05.350Z,23.6
2022-08-26T06:42:00.678Z,23.6
2022-08-26T06:43:01.044Z,23.6
2022-08-26T06:44:01.289Z,23.6
2022-08-26T06:45:01.944Z,23.6
2022-08-26T06:46:09.204Z,23.6
2022-08-26T06:47:00.650Z,23.6
2022-08-26T06:48:00.360Z,23.7
2022-08-26T06:49:00.977Z,23.7
2022-08-26T06:50:00.669Z,23.6
2022-08-26T06:51:12.454Z,23.6
2022-08-26T06:52:00.886Z,23.7
2022-08-26T06:53:00.794Z,23.7
2022-08-26T06:54:00.505Z,23.7
2022-08-26T06:55:00.189Z,23.7
2022-08-26T06:55:59.899Z,23.8
2022-08-26T06:56:59.583Z,23.8
2022-08-26T06:58:01.645Z,23.8
2022-08-26T06:59:01.556Z,23.8
2022-08-26T07:00:00.995Z,23.8
2022-08-26T07:01:09.122Z,23.8
2022-08-26T07:02:01.941Z,23.9
2022-08-26T07:03:01.730Z,23.9
2022-08-26T07:04:01.016Z,23.9
2022-08-26T07:05:00.690Z,24
2022-08-26T07:06:00.321Z,24
2022-08-26T07:07:00.077Z,24
2022-08-26T07:07:59.750Z,24
2022-08-26T07:09:01.416Z,24.1
2022-08-26T07:10:01.140Z,24.1
2022-08-26T07:11:01.061Z,24.1
2022-08-26T07:12:00.873Z,24.1
2022-08-26T07:13:00.520Z,24.2
2022-08-26T07:14:00.330Z,24.3
2022-08-26T07:15:00.785Z,24.3
2022-08-26T07:16:03.131Z,24.3
2022-08-26T07:17:02.305Z,24.4
2022-08-26T07:18:01.278Z,24.5
2022-08-26T07:19:01.224Z,24.5
2022-08-26T07:20:00.975Z,24.5
2022-08-26T07:21:01.015Z,24.6
2022-08-26T07:22:00.638Z,24.6
2022-08-26T07:23:00.376Z,24.6
2022-08-26T07:24:01.754Z,24.6
2022-08-26T07:25:01.536Z,24.6
2022-08-26T07:26:00.946Z,24.6
2022-08-26T07:27:00.749Z,24.6
2022-08-26T07:28:00.768Z,24.6
2022-08-26T07:29:00.930Z,24.6
2022-08-26T07:30:00.582Z,24.7
2022-08-26T07:31:00.912Z,24.7
2022-08-26T07:32:00.660Z,24.7
2022-08-26T07:33:00.344Z,24.7
2022-08-26T07:34:00.047Z,24.8
2022-08-26T07:35:00.199Z,24.7
2022-08-26T07:35:59.850Z,24.7
2022-08-26T07:37:00.672Z,24.7
2022-08-26T07:38:00.668Z,24.8
2022-08-26T07:39:00.698Z,24.8
2022-08-26T07:40:00.458Z,24.8
2022-08-26T07:41:00.999Z,24.8
2022-08-26T07:42:01.130Z,24.8
2022-08-26T07:43:00.963Z,24.8
2022-08-26T07:44:00.689Z,24.8
2022-08-26T07:45:00.379Z,24.8
2022-08-26T07:46:00.262Z,24.9
2022-08-26T07:47:00.207Z,24.9
2022-08-26T07:47:59.833Z,25
2022-08-26T07:49:01.856Z,25
2022-08-26T07:50:00.962Z,25
2022-08-26T07:51:00.761Z,24.9
2022-08-26T07:52:00.479Z,24.9
2022-08-26T07:53:00.124Z,24.9
2022-08-26T07:54:00.531Z,24.9
2022-08-26T07:55:00.173Z,24.8
2022-08-26T07:55:59.877Z,24.8
2022-08-26T07:56:59.687Z,24.8
2022-08-26T07:58:01.428Z,24.8
2022-08-26T07:59:01.475Z,24.8
2022-08-26T08:00:01.480Z,24.9
2022-08-26T08:01:01.619Z,24.9
2022-08-26T08:02:01.289Z,24.9
2022-08-26T08:03:00.948Z,25
2022-08-26T08:04:00.576Z,25
2022-08-26T08:05:00.665Z,25
2022-08-26T08:06:00.459Z,25
2022-08-26T08:07:00.497Z,25
2022-08-26T08:08:26.365Z,25
2022-08-26T08:09:01.315Z,25
2022-08-26T08:10:01.037Z,25.1
2022-08-26T08:11:00.706Z,25.1
2022-08-26T08:12:02.432Z,25.1
2022-08-26T08:13:01.446Z,25.1
2022-08-26T08:14:01.345Z,25.1
2022-08-26T08:15:00.745Z,25.1
2022-08-26T08:16:01.514Z,25.1
2022-08-26T08:17:05.161Z,25.2
2022-08-26T08:18:01.093Z,25.2
2022-08-26T08:19:00.780Z,25.3
2022-08-26T08:20:00.578Z,25.3
2022-08-26T08:21:20.931Z,25.3
2022-08-26T08:22:17.139Z,25.3
2022-08-26T08:23:01.179Z,25.3
2022-08-26T08:24:00.786Z,25.2
2022-08-26T08:25:00.598Z,25.3
2022-08-26T08:26:01.309Z,25.3
2022-08-26T08:27:12.078Z,25.3
2022-08-26T08:28:01.447Z,25.3
2022-08-26T08:29:01.134Z,25.3
2022-08-26T08:30:00.963Z,25.3
2022-08-26T08:31:00.803Z,25.3
2022-08-26T08:32:15.377Z,25.3
2022-08-26T08:33:01.889Z,25.3
2022-08-26T08:34:01.588Z,25.4
2022-08-26T08:35:00.965Z,25.4
2022-08-26T08:36:00.659Z,25.4
2022-08-26T08:37:00.382Z,25.5
2022-08-26T08:38:00.002Z,25.5
2022-08-26T08:39:01.198Z,25.6
2022-08-26T08:40:00.934Z,25.6
2022-08-26T08:41:00.721Z,25.7
2022-08-26T08:42:01.138Z,25.7
2022-08-26T08:43:01.342Z,25.8
2022-08-26T08:44:01.233Z,25.8
2022-08-26T08:45:00.872Z,25.8
2022-08-26T08:46:00.643Z,25.8
2022-08-26T08:47:00.999Z,25.8
2022-08-26T08:48:00.755Z,25.7
2022-08-26T08:49:00.671Z,25.8
2022-08-26T08:50:00.343Z,25.8
2022-08-26T08:51:00.151Z,25.8
2022-08-26T08:52:00.041Z,25.8
2022-08-26T08:52:59.687Z,25.8
2022-08-26T08:54:01.343Z,25.8
2022-08-26T08:55:01.362Z,25.9
2022-08-26T08:56:01.011Z,25.9
2022-08-26T08:57:00.894Z,25.9
2022-08-26T08:58:02.481Z,25.9
2022-08-26T08:59:00.607Z,25.9
2022-08-26T09:00:00.313Z,26
2022-08-26T09:01:00.179Z,26
2022-08-26T09:02:00.674Z,26
2022-08-26T09:03:00.755Z,26
2022-08-26T09:04:00.438Z,26
2022-08-26T09:05:00.845Z,26
2022-08-26T09:06:00.598Z,26.1
2022-08-26T09:07:01.275Z,26.1
2022-08-26T09:08:01.098Z,26.1
2022-08-26T09:09:00.783Z,26.2
2022-08-26T09:10:00.581Z,26.2
2022-08-26T09:11:00.473Z,26.3
2022-08-26T09:12:00.240Z,26.3
2022-08-26T09:12:59.903Z,26.3
2022-08-26T09:14:01.038Z,26.3
2022-08-26T09:15:00.716Z,26.3
2022-08-26T09:16:00.540Z,26.3
2022-08-26T09:17:00.267Z,26.3
2022-08-26T09:18:02.815Z,26.3
2022-08-26T09:19:01.267Z,26.3
2022-08-26T09:20:00.946Z,26.3
2022-08-26T09:21:00.644Z,26.3
2022-08-26T09:22:00.366Z,26.3
2022-08-26T09:23:00.072Z,26.3
2022-08-26T09:23:59.708Z,26.4
2022-08-26T09:25:01.385Z,26.5
2022-08-26T09:26:01.214Z,26.5
2022-08-26T09:27:00.782Z,26.5
2022-08-26T09:28:00.563Z,26.5
2022-08-26T09:29:01.508Z,26.6
2022-08-26T09:30:00.823Z,26.6
2022-08-26T09:31:00.647Z,26.6
2022-08-26T09:32:00.421Z,26.6
2022-08-26T09:33:00.114Z,26.6
2022-08-26T09:34:00.746Z,26.6
2022-08-26T09:35:00.899Z,26.6
2022-08-26T09:36:00.541Z,26.6
2022-08-26T09:37:00.204Z,26.7
2022-08-26T09:38:00.983Z,26.8
2022-08-26T09:39:01.296Z,26.8
2022-08-26T09:40:01.011Z,26.9
2022-08-26T09:41:00.788Z,27
2022-08-26T09:42:00.503Z,27
2022-08-26T09:43:00.501Z,27
2022-08-26T09:44:00.744Z,27
2022-08-26T09:45:00.520Z,27
2022-08-26T09:46:00.404Z,27.1
2022-08-26T09:47:00.135Z,27.1
2022-08-26T09:48:01.330Z,27
2022-08-26T09:49:00.942Z,27
2022-08-26T09:50:00.731Z,27
2022-08-26T09:51:00.857Z,27
2022-08-26T09:52:00.690Z,27
2022-08-26T09:53:01.059Z,27
2022-08-26T09:54:00.738Z,27.1
2022-08-26T09:55:00.466Z,27.1
2022-08-26T09:56:00.161Z,27.1
2022-08-26T09:56:59.903Z,27.2
2022-08-26T09:58:07.774Z,27.3
2022-08-26T09:59:00.595Z,27.3
2022-08-26T10:00:00.252Z,27.4
2022-08-26T10:01:00.170Z,27.5
2022-08-26T10:03:04.164Z,27.5
2022-08-26T10:04:00.781Z,27.5
2022-08-26T10:05:04.457Z,27.5
2022-08-26T10:06:00.666Z,27.5
2022-08-26T10:07:00.320Z,27.5
2022-08-26T10:08:05.613Z,27.5
2022-08-26T10:09:02.727Z,27.5
2022-08-26T10:10:01.073Z,27.5
2022-08-26T10:11:00.945Z,27.5
2022-08-26T10:12:00.775Z,27.5
2022-08-26T10:13:10.083Z,27.5
2022-08-26T10:14:01.106Z,27.5
2022-08-26T10:15:00.820Z,27.5
2022-08-26T10:16:00.498Z,27.5
2022-08-26T10:17:00.732Z,27.5
2022-08-26T10:18:12.150Z,27.5
2022-08-26T10:19:01.573Z,27.5
2022-08-26T10:20:00.826Z,27.5
2022-08-26T10:21:01.243Z,27.6
2022-08-26T10:22:00.901Z,27.6
2022-08-26T10:23:15.888Z,27.6
2022-08-26T10:24:00.657Z,27.7
2022-08-26T10:25:00.794Z,27.7
2022-08-26T10:26:00.690Z,27.7
2022-08-26T10:27:00.394Z,27.8
2022-08-26T10:28:00.199Z,27.8
2022-08-26T10:28:59.818Z,27.7
2022-08-26T10:30:01.496Z,27.8
2022-08-26T10:31:01.316Z,27.8
2022-08-26T10:32:02.516Z,27.9
2022-08-26T10:33:01.433Z,28
2022-08-26T10:34:01.135Z,28
2022-08-26T10:35:01.805Z,28
2022-08-26T10:36:00.881Z,28
2022-08-26T10:37:16.215Z,28
2022-08-26T10:38:00.539Z,28
2022-08-26T10:39:00.375Z,28
2022-08-26T10:40:00.850Z,28.1
2022-08-26T10:41:00.792Z,28.1
2022-08-26T10:42:00.483Z,28.1
2022-08-26T10:43:01.840Z,28.1
2022-08-26T10:44:01.617Z,28.2
2022-08-26T10:45:01.318Z,28.2
2022-08-26T10:46:01.117Z,28.2
2022-08-26T10:47:00.732Z,28.3
2022-08-26T10:48:00.910Z,28.3
2022-08-26T10:49:00.816Z,28.3
2022-08-26T10:50:03.156Z,28.3
2022-08-26T10:51:00.950Z,28.3
2022-08-26T10:52:01.139Z,28.3
2022-08-26T10:53:00.942Z,28.3
2022-08-26T10:54:00.660Z,28.2
2022-08-26T10:55:01.375Z,28.2
2022-08-26T10:56:00.967Z,28.2
2022-08-26T10:57:00.602Z,28.3
2022-08-26T10:58:00.286Z,28.3
2022-08-26T10:59:01.295Z,28.3
2022-08-26T11:00:00.861Z,28.3
2022-08-26T11:01:01.882Z,28.4
2022-08-26T11:02:03.962Z,28.3
2022-08-26T11:03:01.440Z,28.3
2022-08-26T11:04:01.260Z,28.3
2022-08-26T11:05:01.034Z,28.3
2022-08-26T11:06:00.758Z,28.3
2022-08-26T11:07:00.764Z,28.3
2022-08-26T11:08:00.647Z,28.4
2022-08-26T11:09:00.354Z,28.3
2022-08-26T11:10:00.046Z,28.4
2022-08-26T11:10:59.885Z,28.4
2022-08-26T11:12:02.844Z,28.4
2022-08-26T11:13:00.892Z,28.4
2022-08-26T11:14:00.567Z,28.4
2022-08-26T11:15:00.474Z,28.5
2022-08-26T11:16:01.117Z,28.5
2022-08-26T11:17:00.691Z,28.5
2022-08-26T11:18:00.538Z,28.5
2022-08-26T11:19:01.012Z,28.5
2022-08-26T11:20:03.885Z,28.5
2022-08-26T11:21:01.473Z,28.5
2022-08-26T11:22:01.154Z,28.5
2022-08-26T11:23:01.126Z,28.5
2022-08-26T11:24:00.698Z,28.5
2022-08-26T11:25:00.886Z,28.5
2022-08-26T11:26:00.354Z,28.5
2022-08-26T11:27:00.108Z,28.6
2022-08-26T11:28:00.625Z,28.6
2022-08-26T11:29:00.589Z,28.6
2022-08-26T11:30:01.135Z,28.6
2022-08-26T11:31:01.001Z,28.6
2022-08-26T11:32:00.765Z,28.7
2022-08-26T11:33:01.045Z,28.8
2022-08-26T11:34:00.821Z,28.8
2022-08-26T11:35:01.636Z,28.8
2022-08-26T11:36:01.571Z,28.8
2022-08-26T11:37:01.214Z,28.7
2022-08-26T11:38:00.956Z,28.7
2022-08-26T11:39:02.667Z,28.6
2022-08-26T11:40:01.107Z,28.8
2022-08-26T11:41:01.583Z,28.8
2022-08-26T11:42:00.786Z,28.9
2022-08-26T11:43:00.459Z,28.8
2022-08-26T11:44:01.445Z,28.8
2022-08-26T11:45:05.394Z,28.8
2022-08-26T11:46:01.363Z,28.8
2022-08-26T11:47:01.042Z,28.8
2022-08-26T11:48:00.794Z,28.9
2022-08-26T11:49:00.513Z,29
2022-08-26T11:50:01.041Z,29
2022-08-26T11:51:01.368Z,29.1
2022-08-26T11:52:01.550Z,29.1
2022-08-26T11:53:01.141Z,29.2
2022-08-26T11:54:01.049Z,29.3
2022-08-26T11:55:00.857Z,29.3
2022-08-26T11:56:00.952Z,29.3
2022-08-26T11:57:03.748Z,29.4
2022-08-26T11:58:01.637Z,29.4
2022-08-26T11:59:04.562Z,29.4
2022-08-26T12:00:01.516Z,29.3
2022-08-26T12:01:01.403Z,29.2
2022-08-26T12:02:01.757Z,29.1
2022-08-26T12:03:01.170Z,29.1
2022-08-26T12:04:09.431Z,29.1
2022-08-26T12:05:01.194Z,29.1
2022-08-26T12:06:00.823Z,29.1
2022-08-26T12:07:01.058Z,29.1
2022-08-26T12:08:00.830Z,29.1
2022-08-26T12:09:10.230Z,29.1
2022-08-26T12:10:02.200Z,29.2
2022-08-26T12:11:01.573Z,29.3
2022-08-26T12:12:01.527Z,29.3
2022-08-26T12:13:00.886Z,29.3
2022-08-26T12:14:14.335Z,29.3
2022-08-26T12:15:00.567Z,29.3
2022-08-26T12:16:01.570Z,29.3
2022-08-26T12:17:01.340Z,29.3
2022-08-26T12:18:00.581Z,29.4
2022-08-26T12:19:00.305Z,29.5
2022-08-26T12:20:00.254Z,29.5
2022-08-26T12:21:01.126Z,29.5
2022-08-26T12:22:01.183Z,29.5
2022-08-26T12:23:00.848Z,29.5
2022-08-26T12:24:00.621Z,29.5
2022-08-26T12:25:00.300Z,29.5
2022-08-26T12:25:59.925Z,29.5
2022-08-26T12:26:59.680Z,29.4
2022-08-26T12:28:01.658Z,29.5
2022-08-26T12:29:01.378Z,29.5
2022-08-26T12:30:00.873Z,29.5
2022-08-26T12:31:01.615Z,29.6
2022-08-26T12:32:00.722Z,29.6
2022-08-26T12:33:00.477Z,29.7
2022-08-26T12:34:01.302Z,29.8
2022-08-26T12:35:00.663Z,29.8
2022-08-26T12:36:00.715Z,29.8
2022-08-26T12:38:00.244Z,29.8
2022-08-26T12:39:00.035Z,29.8
2022-08-26T12:39:59.819Z,29.8
2022-08-26T12:41:01.682Z,29.9
2022-08-26T12:42:01.060Z,30
2022-08-26T12:43:00.769Z,30
2022-08-26T12:44:00.813Z,30
2022-08-26T12:45:00.475Z,30
2022-08-26T12:46:00.224Z,30
2022-08-26T12:46:59.958Z,30
2022-08-26T12:47:59.699Z,30
2022-08-26T12:49:01.433Z,30
2022-08-26T12:50:00.826Z,30.1
2022-08-26T12:51:01.567Z,30.1
2022-08-26T12:52:00.632Z,30.1
2022-08-26T12:53:00.427Z,30.1
2022-08-26T12:54:00.121Z,30.1
2022-08-26T12:54:59.810Z,30.1
2022-08-26T12:56:01.471Z,30.1
2022-08-26T12:57:01.161Z,30.1
2022-08-26T12:58:00.862Z,30.2
2022-08-26T12:59:00.557Z,30.2
2022-08-26T13:00:00.265Z,30.2
2022-08-26T13:01:00.297Z,30.3
2022-08-26T13:02:00.190Z,30.2
2022-08-26T13:03:00.004Z,30.2
2022-08-26T13:03:59.671Z,30.1
2022-08-26T13:05:01.406Z,30.1
2022-08-26T13:06:01.122Z,30
2022-08-26T13:07:00.837Z,30
2022-08-26T13:08:00.621Z,30
2022-08-26T13:09:00.328Z,30
2022-08-26T13:10:00.033Z,30
2022-08-26T13:10:59.725Z,30
2022-08-26T13:12:02.158Z,30.1
2022-08-26T13:13:01.651Z,30.1
2022-08-26T13:14:01.742Z,30.1
2022-08-26T13:15:02.081Z,30
2022-08-26T13:16:01.542Z,30.1
2022-08-26T13:17:01.400Z,30.1
2022-08-26T13:18:01.112Z,30.1
2022-08-26T13:19:01.797Z,30.1
2022-08-26T13:20:03.829Z,30.1
2022-08-26T13:21:01.531Z,30.2
2022-08-26T13:22:01.065Z,30.2
2022-08-26T13:23:00.824Z,30.2
2022-08-26T13:24:00.593Z,30.3